sensor_id;sensor_type;location;lat;lon;timestamp;P1;durP1;ratioP1;P2;durP2;ratioP2
44842;SDS011;31884;52.538;13.820;2023-05-07T00:00:10;22.02;;;14.20;;
44842;SDS011;31884;52.538;13.820;2023-05-07T00:02:36;18.33;;;13.65;;
44842;SDS011;31884;52.538;13.820;2023-05-07T00:05:02;19.48;;;13.68;;
44842;SDS011;31884;52.538;13.820;2023-05-07T00:07:28;22.17;;;14.98;;
44842;SDS011;31884;52.538;13.820;2023-05-07T00:09:54;20.35;;;13.55;;
44842;SDS011;31884;52.538;13.820;2023-05-07T00:12:20;24.15;;;13.82;;
44842;SDS011;31884;52.538;13.820;2023-05-07T00:14:45;16.00;;;13.07;;
44842;SDS011;31884;52.538;13.820;2023-05-07T00:17:11;22.75;;;15.75;;
44842;SDS011;31884;52.538;13.820;2023-05-07T00:19:36;21.50;;;15.15;;
44842;SDS011;31884;52.538;13.820;2023-05-07T00:22:02;20.52;;;14.20;;
44842;SDS011;31884;52.538;13.820;2023-05-07T00:24:27;19.70;;;14.68;;
44842;SDS011;31884;52.538;13.820;2023-05-07T00:26:53;18.80;;;14.00;;
44842;SDS011;31884;52.538;13.820;2023-05-07T00:29:18;20.17;;;15.05;;
44842;SDS011;31884;52.538;13.820;2023-05-07T00:31:44;21.27;;;14.27;;
44842;SDS011;31884;52.538;13.820;2023-05-07T00:34:09;21.67;;;15.10;;
44842;SDS011;31884;52.538;13.820;2023-05-07T00:36:35;21.00;;;14.30;;
44842;SDS011;31884;52.538;13.820;2023-05-07T00:39:00;24.90;;;15.55;;
44842;SDS011;31884;52.538;13.820;2023-05-07T00:41:28;24.25;;;15.02;;
44842;SDS011;31884;52.538;13.820;2023-05-07T00:43:55;26.27;;;16.13;;
44842;SDS011;31884;52.538;13.820;2023-05-07T00:46:21;19.40;;;14.20;;
44842;SDS011;31884;52.538;13.820;2023-05-07T00:48:47;26.42;;;16.10;;
44842;SDS011;31884;52.538;13.820;2023-05-07T00:51:14;24.67;;;16.02;;
44842;SDS011;31884;52.538;13.820;2023-05-07T00:53:40;21.15;;;15.55;;
44842;SDS011;31884;52.538;13.820;2023-05-07T00:56:06;21.63;;;15.27;;
44842;SDS011;31884;52.538;13.820;2023-05-07T00:58:32;21.95;;;14.52;;
44842;SDS011;31884;52.538;13.820;2023-05-07T01:00:58;17.90;;;13.93;;
44842;SDS011;31884;52.538;13.820;2023-05-07T01:03:24;25.38;;;15.40;;
44842;SDS011;31884;52.538;13.820;2023-05-07T01:05:50;22.73;;;16.33;;
44842;SDS011;31884;52.538;13.820;2023-05-07T01:08:17;18.50;;;14.10;;
44842;SDS011;31884;52.538;13.820;2023-05-07T01:10:43;20.50;;;15.02;;
44842;SDS011;31884;52.538;13.820;2023-05-07T01:13:10;22.75;;;16.23;;
44842;SDS011;31884;52.538;13.820;2023-05-07T01:15:37;20.73;;;15.60;;
44842;SDS011;31884;52.538;13.820;2023-05-07T01:18:03;25.83;;;17.30;;
44842;SDS011;31884;52.538;13.820;2023-05-07T01:20:28;23.20;;;16.75;;
44842;SDS011;31884;52.538;13.820;2023-05-07T01:22:54;21.60;;;15.23;;
44842;SDS011;31884;52.538;13.820;2023-05-07T01:25:22;25.10;;;16.40;;
44842;SDS011;31884;52.538;13.820;2023-05-07T01:27:48;26.15;;;16.40;;
44842;SDS011;31884;52.538;13.820;2023-05-07T01:30:13;19.60;;;15.45;;
44842;SDS011;31884;52.538;13.820;2023-05-07T01:32:50;20.33;;;14.20;;
44842;SDS011;31884;52.538;13.820;2023-05-07T01:35:19;20.92;;;16.58;;
44842;SDS011;31884;52.538;13.820;2023-05-07T01:37:47;22.00;;;15.85;;
44842;SDS011;31884;52.538;13.820;2023-05-07T01:40:14;22.77;;;15.23;;
44842;SDS011;31884;52.538;13.820;2023-05-07T01:42:40;22.50;;;15.35;;
44842;SDS011;31884;52.538;13.820;2023-05-07T01:45:08;23.25;;;15.70;;
44842;SDS011;31884;52.538;13.820;2023-05-07T01:47:34;24.80;;;16.80;;
44842;SDS011;31884;52.538;13.820;2023-05-07T01:50:00;22.60;;;15.30;;
44842;SDS011;31884;52.538;13.820;2023-05-07T01:52:27;22.02;;;15.32;;
44842;SDS011;31884;52.538;13.820;2023-05-07T01:54:54;22.38;;;15.57;;
44842;SDS011;31884;52.538;13.820;2023-05-07T01:57:19;20.88;;;14.05;;
44842;SDS011;31884;52.538;13.820;2023-05-07T01:59:45;21.63;;;14.95;;
44842;SDS011;31884;52.538;13.820;2023-05-07T02:02:11;23.05;;;16.08;;
44842;SDS011;31884;52.538;13.820;2023-05-07T02:04:37;19.50;;;13.82;;
44842;SDS011;31884;52.538;13.820;2023-05-07T02:07:03;24.60;;;16.23;;
44842;SDS011;31884;52.538;13.820;2023-05-07T02:09:29;22.20;;;15.68;;
44842;SDS011;31884;52.538;13.820;2023-05-07T02:11:55;21.15;;;15.90;;
44842;SDS011;31884;52.538;13.820;2023-05-07T02:14:20;20.85;;;15.60;;
44842;SDS011;31884;52.538;13.820;2023-05-07T02:16:45;20.33;;;14.93;;
44842;SDS011;31884;52.538;13.820;2023-05-07T02:19:11;21.85;;;14.63;;
44842;SDS011;31884;52.538;13.820;2023-05-07T02:21:37;18.70;;;14.20;;
44842;SDS011;31884;52.538;13.820;2023-05-07T02:24:03;19.70;;;14.32;;
44842;SDS011;31884;52.538;13.820;2023-05-07T02:26:28;21.40;;;15.02;;
44842;SDS011;31884;52.538;13.820;2023-05-07T02:28:54;21.52;;;14.43;;
44842;SDS011;31884;52.538;13.820;2023-05-07T02:31:20;21.88;;;15.50;;
44842;SDS011;31884;52.538;13.820;2023-05-07T02:33:45;21.13;;;14.75;;
44842;SDS011;31884;52.538;13.820;2023-05-07T02:36:11;25.88;;;14.68;;
44842;SDS011;31884;52.538;13.820;2023-05-07T02:38:37;21.83;;;15.25;;
44842;SDS011;31884;52.538;13.820;2023-05-07T02:41:04;22.98;;;15.82;;
44842;SDS011;31884;52.538;13.820;2023-05-07T02:43:30;19.60;;;14.95;;
44842;SDS011;31884;52.538;13.820;2023-05-07T02:46:05;21.38;;;14.68;;
44842;SDS011;31884;52.538;13.820;2023-05-07T02:48:32;21.38;;;14.65;;
44842;SDS011;31884;52.538;13.820;2023-05-07T02:50:58;20.23;;;14.00;;
44842;SDS011;31884;52.538;13.820;2023-05-07T02:53:25;20.98;;;13.85;;
44842;SDS011;31884;52.538;13.820;2023-05-07T02:55:55;17.98;;;13.38;;
44842;SDS011;31884;52.538;13.820;2023-05-07T02:58:22;19.52;;;13.18;;
44842;SDS011;31884;52.538;13.820;2023-05-07T03:00:48;20.80;;;13.98;;
44842;SDS011;31884;52.538;13.820;2023-05-07T03:03:14;17.75;;;13.65;;
44842;SDS011;31884;52.538;13.820;2023-05-07T03:05:40;21.65;;;14.85;;
44842;SDS011;31884;52.538;13.820;2023-05-07T03:08:06;25.00;;;14.60;;
44842;SDS011;31884;52.538;13.820;2023-05-07T03:10:32;19.45;;;15.10;;
44842;SDS011;31884;52.538;13.820;2023-05-07T03:12:57;18.10;;;12.38;;
44842;SDS011;31884;52.538;13.820;2023-05-07T03:15:23;20.45;;;14.27;;
44842;SDS011;31884;52.538;13.820;2023-05-07T03:17:48;20.88;;;14.10;;
44842;SDS011;31884;52.538;13.820;2023-05-07T03:20:14;22.02;;;14.68;;
44842;SDS011;31884;52.538;13.820;2023-05-07T03:22:40;19.63;;;14.40;;
44842;SDS011;31884;52.538;13.820;2023-05-07T03:25:06;24.73;;;15.20;;
44842;SDS011;31884;52.538;13.820;2023-05-07T03:27:34;17.45;;;13.52;;
44842;SDS011;31884;52.538;13.820;2023-05-07T03:29:59;18.23;;;12.90;;
44842;SDS011;31884;52.538;13.820;2023-05-07T03:32:25;17.60;;;13.38;;
44842;SDS011;31884;52.538;13.820;2023-05-07T03:34:51;19.00;;;13.73;;
44842;SDS011;31884;52.538;13.820;2023-05-07T03:37:17;19.00;;;14.05;;
44842;SDS011;31884;52.538;13.820;2023-05-07T03:39:44;22.30;;;14.90;;
44842;SDS011;31884;52.538;13.820;2023-05-07T03:42:09;15.82;;;12.88;;
44842;SDS011;31884;52.538;13.820;2023-05-07T03:44:35;22.73;;;13.55;;
44842;SDS011;31884;52.538;13.820;2023-05-07T03:47:01;18.77;;;13.75;;
44842;SDS011;31884;52.538;13.820;2023-05-07T03:49:28;18.17;;;13.68;;
44842;SDS011;31884;52.538;13.820;2023-05-07T03:51:53;19.00;;;12.73;;
44842;SDS011;31884;52.538;13.820;2023-05-07T03:54:19;18.15;;;13.05;;
44842;SDS011;31884;52.538;13.820;2023-05-07T03:56:44;17.65;;;12.18;;
44842;SDS011;31884;52.538;13.820;2023-05-07T03:59:10;16.83;;;11.55;;
44842;SDS011;31884;52.538;13.820;2023-05-07T04:01:38;19.30;;;11.45;;
44842;SDS011;31884;52.538;13.820;2023-05-07T04:04:04;20.63;;;12.73;;
44842;SDS011;31884;52.538;13.820;2023-05-07T04:06:30;17.42;;;12.75;;
44842;SDS011;31884;52.538;13.820;2023-05-07T04:08:55;16.70;;;12.23;;
44842;SDS011;31884;52.538;13.820;2023-05-07T04:11:21;18.40;;;12.50;;
44842;SDS011;31884;52.538;13.820;2023-05-07T04:13:47;15.95;;;10.70;;
44842;SDS011;31884;52.538;13.820;2023-05-07T04:16:13;18.10;;;11.98;;
44842;SDS011;31884;52.538;13.820;2023-05-07T04:18:39;16.70;;;12.30;;
44842;SDS011;31884;52.538;13.820;2023-05-07T04:21:04;17.80;;;11.27;;
44842;SDS011;31884;52.538;13.820;2023-05-07T04:23:30;17.23;;;11.98;;
44842;SDS011;31884;52.538;13.820;2023-05-07T04:25:56;12.75;;;10.13;;
44842;SDS011;31884;52.538;13.820;2023-05-07T04:28:23;14.57;;;11.27;;
44842;SDS011;31884;52.538;13.820;2023-05-07T04:30:49;13.98;;;10.70;;
44842;SDS011;31884;52.538;13.820;2023-05-07T04:33:14;17.20;;;11.48;;
44842;SDS011;31884;52.538;13.820;2023-05-07T04:35:43;16.67;;;10.40;;
44842;SDS011;31884;52.538;13.820;2023-05-07T04:38:09;13.10;;;10.65;;
44842;SDS011;31884;52.538;13.820;2023-05-07T04:40:38;12.48;;;10.07;;
44842;SDS011;31884;52.538;13.820;2023-05-07T04:43:04;17.35;;;10.48;;
44842;SDS011;31884;52.538;13.820;2023-05-07T04:45:29;16.67;;;10.13;;
44842;SDS011;31884;52.538;13.820;2023-05-07T04:47:55;12.38;;;9.80;;
44842;SDS011;31884;52.538;13.820;2023-05-07T04:50:20;15.70;;;10.77;;
44842;SDS011;31884;52.538;13.820;2023-05-07T04:52:48;16.20;;;10.65;;
44842;SDS011;31884;52.538;13.820;2023-05-07T04:55:14;15.20;;;10.32;;
44842;SDS011;31884;52.538;13.820;2023-05-07T04:57:39;15.23;;;11.27;;
44842;SDS011;31884;52.538;13.820;2023-05-07T05:00:06;13.20;;;9.52;;
44842;SDS011;31884;52.538;13.820;2023-05-07T05:02:33;17.95;;;10.93;;
44842;SDS011;31884;52.538;13.820;2023-05-07T05:04:59;15.27;;;10.70;;
44842;SDS011;31884;52.538;13.820;2023-05-07T05:07:27;15.65;;;10.13;;
44842;SDS011;31884;52.538;13.820;2023-05-07T05:09:54;13.50;;;9.55;;
44842;SDS011;31884;52.538;13.820;2023-05-07T05:12:20;14.27;;;10.60;;
44842;SDS011;31884;52.538;13.820;2023-05-07T05:14:46;17.40;;;11.65;;
44842;SDS011;31884;52.538;13.820;2023-05-07T05:17:12;18.05;;;10.50;;
44842;SDS011;31884;52.538;13.820;2023-05-07T05:19:37;13.65;;;8.77;;
44842;SDS011;31884;52.538;13.820;2023-05-07T05:22:03;15.45;;;10.98;;
44842;SDS011;31884;52.538;13.820;2023-05-07T05:24:29;13.50;;;10.43;;
44842;SDS011;31884;52.538;13.820;2023-05-07T05:26:55;15.65;;;9.80;;
44842;SDS011;31884;52.538;13.820;2023-05-07T05:29:20;12.85;;;9.63;;
44842;SDS011;31884;52.538;13.820;2023-05-07T05:31:46;15.50;;;10.52;;
44842;SDS011;31884;52.538;13.820;2023-05-07T05:34:11;17.83;;;11.00;;
44842;SDS011;31884;52.538;13.820;2023-05-07T05:36:37;13.15;;;9.75;;
44842;SDS011;31884;52.538;13.820;2023-05-07T05:39:02;16.40;;;10.05;;
44842;SDS011;31884;52.538;13.820;2023-05-07T05:41:28;17.35;;;11.55;;
44842;SDS011;31884;52.538;13.820;2023-05-07T05:43:54;14.65;;;9.75;;
44842;SDS011;31884;52.538;13.820;2023-05-07T05:46:20;13.75;;;9.77;;
44842;SDS011;31884;52.538;13.820;2023-05-07T05:48:45;13.32;;;10.07;;
44842;SDS011;31884;52.538;13.820;2023-05-07T05:51:10;14.38;;;10.18;;
44842;SDS011;31884;52.538;13.820;2023-05-07T05:53:36;15.10;;;10.10;;
44842;SDS011;31884;52.538;13.820;2023-05-07T05:56:01;13.90;;;8.88;;
44842;SDS011;31884;52.538;13.820;2023-05-07T05:58:27;14.88;;;9.48;;
44842;SDS011;31884;52.538;13.820;2023-05-07T06:00:53;12.90;;;9.55;;
44842;SDS011;31884;52.538;13.820;2023-05-07T06:03:18;12.63;;;9.13;;
44842;SDS011;31884;52.538;13.820;2023-05-07T06:05:44;15.75;;;10.77;;
44842;SDS011;31884;52.538;13.820;2023-05-07T06:08:09;12.15;;;9.93;;
44842;SDS011;31884;52.538;13.820;2023-05-07T06:10:35;15.85;;;10.18;;
44842;SDS011;31884;52.538;13.820;2023-05-07T06:13:02;14.70;;;9.25;;
44842;SDS011;31884;52.538;13.820;2023-05-07T06:15:27;14.75;;;9.20;;
44842;SDS011;31884;52.538;13.820;2023-05-07T06:17:53;13.30;;;9.43;;
44842;SDS011;31884;52.538;13.820;2023-05-07T06:20:20;12.10;;;8.70;;
44842;SDS011;31884;52.538;13.820;2023-05-07T06:22:46;9.80;;;7.32;;
44842;SDS011;31884;52.538;13.820;2023-05-07T06:25:11;11.63;;;6.88;;
44842;SDS011;31884;52.538;13.820;2023-05-07T06:27:37;10.68;;;6.95;;
44842;SDS011;31884;52.538;13.820;2023-05-07T06:30:05;8.50;;;5.70;;
44842;SDS011;31884;52.538;13.820;2023-05-07T06:32:31;7.57;;;6.00;;
44842;SDS011;31884;52.538;13.820;2023-05-07T06:34:57;9.23;;;6.30;;
44842;SDS011;31884;52.538;13.820;2023-05-07T06:37:22;6.50;;;5.40;;
44842;SDS011;31884;52.538;13.820;2023-05-07T06:39:48;5.55;;;4.95;;
44842;SDS011;31884;52.538;13.820;2023-05-07T06:42:13;7.15;;;5.40;;
44842;SDS011;31884;52.538;13.820;2023-05-07T06:44:39;7.57;;;5.65;;
44842;SDS011;31884;52.538;13.820;2023-05-07T06:47:04;6.40;;;4.65;;
44842;SDS011;31884;52.538;13.820;2023-05-07T06:49:30;7.43;;;4.93;;
44842;SDS011;31884;52.538;13.820;2023-05-07T06:51:56;6.68;;;5.40;;
44842;SDS011;31884;52.538;13.820;2023-05-07T06:54:22;8.90;;;5.40;;
44842;SDS011;31884;52.538;13.820;2023-05-07T06:56:47;8.95;;;5.93;;
44842;SDS011;31884;52.538;13.820;2023-05-07T06:59:13;7.25;;;5.30;;
44842;SDS011;31884;52.538;13.820;2023-05-07T07:01:39;6.28;;;4.60;;
44842;SDS011;31884;52.538;13.820;2023-05-07T07:04:04;6.22;;;4.10;;
44842;SDS011;31884;52.538;13.820;2023-05-07T07:06:30;6.75;;;4.40;;
44842;SDS011;31884;52.538;13.820;2023-05-07T07:08:56;3.97;;;3.33;;
44842;SDS011;31884;52.538;13.820;2023-05-07T07:11:22;5.18;;;3.67;;
44842;SDS011;31884;52.538;13.820;2023-05-07T07:13:48;4.97;;;3.28;;
44842;SDS011;31884;52.538;13.820;2023-05-07T07:16:13;3.75;;;3.22;;
44842;SDS011;31884;52.538;13.820;2023-05-07T07:18:39;5.03;;;3.72;;
44842;SDS011;31884;52.538;13.820;2023-05-07T07:21:05;4.05;;;3.10;;
44842;SDS011;31884;52.538;13.820;2023-05-07T07:23:30;5.57;;;3.58;;
44842;SDS011;31884;52.538;13.820;2023-05-07T07:25:56;4.50;;;3.40;;
44842;SDS011;31884;52.538;13.820;2023-05-07T07:28:21;5.18;;;3.30;;
44842;SDS011;31884;52.538;13.820;2023-05-07T07:30:47;4.93;;;3.35;;
44842;SDS011;31884;52.538;13.820;2023-05-07T07:33:12;3.92;;;2.90;;
44842;SDS011;31884;52.538;13.820;2023-05-07T07:35:39;4.28;;;3.08;;
44842;SDS011;31884;52.538;13.820;2023-05-07T07:38:04;3.33;;;2.67;;
44842;SDS011;31884;52.538;13.820;2023-05-07T07:40:30;5.32;;;2.83;;
44842;SDS011;31884;52.538;13.820;2023-05-07T07:42:56;2.88;;;2.58;;
44842;SDS011;31884;52.538;13.820;2023-05-07T07:45:22;3.38;;;2.22;;
44842;SDS011;31884;52.538;13.820;2023-05-07T07:47:47;3.15;;;2.65;;
44842;SDS011;31884;52.538;13.820;2023-05-07T07:50:13;4.38;;;3.10;;
44842;SDS011;31884;52.538;13.820;2023-05-07T07:52:38;4.82;;;3.03;;
44842;SDS011;31884;52.538;13.820;2023-05-07T07:55:04;3.55;;;3.17;;
44842;SDS011;31884;52.538;13.820;2023-05-07T07:57:30;4.40;;;3.33;;
44842;SDS011;31884;52.538;13.820;2023-05-07T07:59:56;3.88;;;2.97;;
44842;SDS011;31884;52.538;13.820;2023-05-07T08:02:21;3.85;;;2.83;;
44842;SDS011;31884;52.538;13.820;2023-05-07T08:04:47;3.10;;;2.55;;
44842;SDS011;31884;52.538;13.820;2023-05-07T08:07:12;5.80;;;3.00;;
44842;SDS011;31884;52.538;13.820;2023-05-07T08:09:38;4.18;;;2.80;;
44842;SDS011;31884;52.538;13.820;2023-05-07T08:12:04;4.72;;;2.92;;
44842;SDS011;31884;52.538;13.820;2023-05-07T08:14:30;4.07;;;2.85;;
44842;SDS011;31884;52.538;13.820;2023-05-07T08:16:56;4.65;;;2.65;;
44842;SDS011;31884;52.538;13.820;2023-05-07T08:19:22;4.82;;;2.60;;
44842;SDS011;31884;52.538;13.820;2023-05-07T08:21:48;3.20;;;2.78;;
44842;SDS011;31884;52.538;13.820;2023-05-07T08:24:17;4.88;;;3.05;;
44842;SDS011;31884;52.538;13.820;2023-05-07T08:26:43;4.43;;;3.22;;
44842;SDS011;31884;52.538;13.820;2023-05-07T08:29:10;3.50;;;2.78;;
44842;SDS011;31884;52.538;13.820;2023-05-07T08:31:35;5.50;;;3.10;;
44842;SDS011;31884;52.538;13.820;2023-05-07T08:34:01;4.15;;;2.50;;
44842;SDS011;31884;52.538;13.820;2023-05-07T08:36:28;4.50;;;3.13;;
44842;SDS011;31884;52.538;13.820;2023-05-07T08:38:53;7.85;;;3.80;;
44842;SDS011;31884;52.538;13.820;2023-05-07T08:41:19;3.80;;;2.65;;
44842;SDS011;31884;52.538;13.820;2023-05-07T08:43:47;5.68;;;2.90;;
44842;SDS011;31884;52.538;13.820;2023-05-07T08:46:17;3.83;;;3.15;;
44842;SDS011;31884;52.538;13.820;2023-05-07T08:48:48;6.15;;;3.65;;
44842;SDS011;31884;52.538;13.820;2023-05-07T08:51:16;4.72;;;3.38;;
44842;SDS011;31884;52.538;13.820;2023-05-07T08:53:46;4.00;;;3.17;;
44842;SDS011;31884;52.538;13.820;2023-05-07T08:56:13;3.50;;;2.97;;
44842;SDS011;31884;52.538;13.820;2023-05-07T08:58:40;4.20;;;2.67;;
44842;SDS011;31884;52.538;13.820;2023-05-07T09:01:07;2.85;;;2.60;;
44842;SDS011;31884;52.538;13.820;2023-05-07T09:03:34;3.65;;;2.65;;
44842;SDS011;31884;52.538;13.820;2023-05-07T09:06:00;2.85;;;2.22;;
44842;SDS011;31884;52.538;13.820;2023-05-07T09:08:26;4.43;;;2.90;;
44842;SDS011;31884;52.538;13.820;2023-05-07T09:10:52;3.97;;;2.30;;
44842;SDS011;31884;52.538;13.820;2023-05-07T09:13:18;5.65;;;2.83;;
44842;SDS011;31884;52.538;13.820;2023-05-07T09:15:44;3.10;;;2.53;;
44842;SDS011;31884;52.538;13.820;2023-05-07T09:18:10;2.58;;;2.38;;
44842;SDS011;31884;52.538;13.820;2023-05-07T09:20:38;3.83;;;2.47;;
44842;SDS011;31884;52.538;13.820;2023-05-07T09:23:06;3.33;;;2.40;;
44842;SDS011;31884;52.538;13.820;2023-05-07T09:25:32;2.80;;;2.20;;
44842;SDS011;31884;52.538;13.820;2023-05-07T09:28:00;3.55;;;2.40;;
44842;SDS011;31884;52.538;13.820;2023-05-07T09:30:27;2.75;;;2.30;;
44842;SDS011;31884;52.538;13.820;2023-05-07T09:32:54;3.47;;;2.35;;
44842;SDS011;31884;52.538;13.820;2023-05-07T09:35:19;2.40;;;2.10;;
44842;SDS011;31884;52.538;13.820;2023-05-07T09:37:52;2.75;;;2.17;;
44842;SDS011;31884;52.538;13.820;2023-05-07T09:40:22;4.63;;;2.33;;
44842;SDS011;31884;52.538;13.820;2023-05-07T09:42:48;3.40;;;1.95;;
44842;SDS011;31884;52.538;13.820;2023-05-07T09:45:15;4.28;;;2.00;;
44842;SDS011;31884;52.538;13.820;2023-05-07T09:47:42;3.33;;;1.98;;
44842;SDS011;31884;52.538;13.820;2023-05-07T09:50:12;5.20;;;2.20;;
44842;SDS011;31884;52.538;13.820;2023-05-07T09:52:40;2.70;;;2.40;;
44842;SDS011;31884;52.538;13.820;2023-05-07T09:55:06;4.10;;;2.55;;
44842;SDS011;31884;52.538;13.820;2023-05-07T09:57:32;4.15;;;2.38;;
44842;SDS011;31884;52.538;13.820;2023-05-07T09:59:59;3.45;;;2.25;;
44842;SDS011;31884;52.538;13.820;2023-05-07T10:02:27;2.85;;;2.28;;
44842;SDS011;31884;52.538;13.820;2023-05-07T10:04:55;4.10;;;2.40;;
44842;SDS011;31884;52.538;13.820;2023-05-07T10:07:23;2.30;;;1.95;;
44842;SDS011;31884;52.538;13.820;2023-05-07T10:09:50;2.60;;;1.90;;
44842;SDS011;31884;52.538;13.820;2023-05-07T10:12:16;3.03;;;1.65;;
44842;SDS011;31884;52.538;13.820;2023-05-07T10:14:43;2.20;;;2.00;;
44842;SDS011;31884;52.538;13.820;2023-05-07T10:17:10;3.60;;;2.00;;
44842;SDS011;31884;52.538;13.820;2023-05-07T10:19:36;2.95;;;2.05;;
44842;SDS011;31884;52.538;13.820;2023-05-07T10:22:04;2.80;;;1.85;;
44842;SDS011;31884;52.538;13.820;2023-05-07T10:24:34;2.72;;;2.00;;
44842;SDS011;31884;52.538;13.820;2023-05-07T10:27:02;3.40;;;1.73;;
44842;SDS011;31884;52.538;13.820;2023-05-07T10:32:37;2.42;;;1.67;;
44842;SDS011;31884;52.538;13.820;2023-05-07T10:35:06;3.75;;;2.05;;
44842;SDS011;31884;52.538;13.820;2023-05-07T10:37:38;3.10;;;2.10;;
44842;SDS011;31884;52.538;13.820;2023-05-07T10:40:05;3.13;;;2.05;;
44842;SDS011;31884;52.538;13.820;2023-05-07T10:42:32;3.55;;;2.13;;
44842;SDS011;31884;52.538;13.820;2023-05-07T10:44:57;2.15;;;1.58;;
44842;SDS011;31884;52.538;13.820;2023-05-07T10:47:36;2.95;;;1.67;;
44842;SDS011;31884;52.538;13.820;2023-05-07T10:50:21;4.07;;;2.17;;
44842;SDS011;31884;52.538;13.820;2023-05-07T10:52:57;4.47;;;2.28;;
44842;SDS011;31884;52.538;13.820;2023-05-07T10:55:41;2.90;;;1.80;;
44842;SDS011;31884;52.538;13.820;2023-05-07T10:58:23;2.50;;;2.10;;
44842;SDS011;31884;52.538;13.820;2023-05-07T11:00:55;2.13;;;1.60;;
44842;SDS011;31884;52.538;13.820;2023-05-07T11:03:21;4.30;;;1.85;;
44842;SDS011;31884;52.538;13.820;2023-05-07T11:05:47;2.83;;;1.65;;
44842;SDS011;31884;52.538;13.820;2023-05-07T11:11:17;2.58;;;1.70;;
44842;SDS011;31884;52.538;13.820;2023-05-07T11:16:19;5.47;;;2.03;;
44842;SDS011;31884;52.538;13.820;2023-05-07T11:18:52;3.90;;;1.70;;
44842;SDS011;31884;52.538;13.820;2023-05-07T11:21:31;3.67;;;1.65;;
44842;SDS011;31884;52.538;13.820;2023-05-07T11:24:04;1.85;;;1.33;;
44842;SDS011;31884;52.538;13.820;2023-05-07T11:26:44;2.55;;;1.77;;
44842;SDS011;31884;52.538;13.820;2023-05-07T11:29:20;6.20;;;1.80;;
44842;SDS011;31884;52.538;13.820;2023-05-07T11:31:50;4.20;;;2.33;;
44842;SDS011;31884;52.538;13.820;2023-05-07T11:34:20;4.05;;;1.75;;
44842;SDS011;31884;52.538;13.820;2023-05-07T11:36:50;1.90;;;1.67;;
44842;SDS011;31884;52.538;13.820;2023-05-07T11:39:31;2.55;;;1.80;;
44842;SDS011;31884;52.538;13.820;2023-05-07T11:42:01;2.83;;;2.00;;
44842;SDS011;31884;52.538;13.820;2023-05-07T11:44:44;4.18;;;1.73;;
44842;SDS011;31884;52.538;13.820;2023-05-07T11:47:11;1.73;;;1.52;;
44842;SDS011;31884;52.538;13.820;2023-05-07T11:49:42;2.92;;;1.83;;
44842;SDS011;31884;52.538;13.820;2023-05-07T11:52:09;2.13;;;1.67;;
44842;SDS011;31884;52.538;13.820;2023-05-07T11:54:35;1.90;;;1.52;;
44842;SDS011;31884;52.538;13.820;2023-05-07T11:57:02;2.42;;;1.60;;
44842;SDS011;31884;52.538;13.820;2023-05-07T11:59:28;3.30;;;1.52;;
44842;SDS011;31884;52.538;13.820;2023-05-07T12:01:56;2.20;;;1.77;;
44842;SDS011;31884;52.538;13.820;2023-05-07T12:04:22;2.35;;;1.60;;
44842;SDS011;31884;52.538;13.820;2023-05-07T12:06:48;3.58;;;1.33;;
44842;SDS011;31884;52.538;13.820;2023-05-07T12:09:15;2.40;;;1.73;;
44842;SDS011;31884;52.538;13.820;2023-05-07T12:11:41;3.90;;;1.85;;
44842;SDS011;31884;52.538;13.820;2023-05-07T12:14:10;3.30;;;1.67;;
44842;SDS011;31884;52.538;13.820;2023-05-07T12:16:36;3.88;;;1.60;;
44842;SDS011;31884;52.538;13.820;2023-05-07T12:19:04;2.08;;;1.88;;
44842;SDS011;31884;52.538;13.820;2023-05-07T12:21:31;5.32;;;1.77;;
44842;SDS011;31884;52.538;13.820;2023-05-07T12:23:57;1.98;;;1.75;;
44842;SDS011;31884;52.538;13.820;2023-05-07T12:26:22;3.58;;;2.17;;
44842;SDS011;31884;52.538;13.820;2023-05-07T12:28:49;7.10;;;1.95;;
44842;SDS011;31884;52.538;13.820;2023-05-07T12:31:15;3.72;;;2.20;;
44842;SDS011;31884;52.538;13.820;2023-05-07T12:33:41;3.28;;;1.90;;
44842;SDS011;31884;52.538;13.820;2023-05-07T12:36:07;5.22;;;2.20;;
44842;SDS011;31884;52.538;13.820;2023-05-07T12:38:36;3.00;;;1.73;;
44842;SDS011;31884;52.538;13.820;2023-05-07T12:41:03;3.85;;;1.83;;
44842;SDS011;31884;52.538;13.820;2023-05-07T12:43:29;4.63;;;2.05;;
44842;SDS011;31884;52.538;13.820;2023-05-07T12:45:56;5.82;;;2.00;;
44842;SDS011;31884;52.538;13.820;2023-05-07T12:48:24;3.08;;;2.17;;
44842;SDS011;31884;52.538;13.820;2023-05-07T12:50:53;2.15;;;1.77;;
44842;SDS011;31884;52.538;13.820;2023-05-07T12:53:20;3.30;;;1.98;;
44842;SDS011;31884;52.538;13.820;2023-05-07T12:55:47;7.55;;;1.70;;
44842;SDS011;31884;52.538;13.820;2023-05-07T12:58:15;3.47;;;1.60;;
44842;SDS011;31884;52.538;13.820;2023-05-07T13:00:42;1.92;;;1.77;;
44842;SDS011;31884;52.538;13.820;2023-05-07T13:03:08;2.95;;;1.73;;
44842;SDS011;31884;52.538;13.820;2023-05-07T13:05:34;2.65;;;2.13;;
44842;SDS011;31884;52.538;13.820;2023-05-07T13:07:59;1.65;;;1.40;;
44842;SDS011;31884;52.538;13.820;2023-05-07T13:10:26;3.83;;;1.63;;
44842;SDS011;31884;52.538;13.820;2023-05-07T13:12:52;6.05;;;1.88;;
44842;SDS011;31884;52.538;13.820;2023-05-07T13:15:17;2.05;;;1.85;;
44842;SDS011;31884;52.538;13.820;2023-05-07T13:17:44;3.05;;;1.70;;
44842;SDS011;31884;52.538;13.820;2023-05-07T13:20:09;4.93;;;1.83;;
44842;SDS011;31884;52.538;13.820;2023-05-07T13:22:36;2.30;;;1.50;;
44842;SDS011;31884;52.538;13.820;2023-05-07T13:25:02;2.17;;;1.67;;
44842;SDS011;31884;52.538;13.820;2023-05-07T13:27:27;2.35;;;1.60;;
44842;SDS011;31884;52.538;13.820;2023-05-07T13:29:55;3.22;;;2.03;;
44842;SDS011;31884;52.538;13.820;2023-05-07T13:32:21;6.82;;;1.88;;
44842;SDS011;31884;52.538;13.820;2023-05-07T13:34:46;3.47;;;1.60;;
44842;SDS011;31884;52.538;13.820;2023-05-07T13:37:12;1.70;;;1.60;;
44842;SDS011;31884;52.538;13.820;2023-05-07T13:39:37;1.58;;;1.30;;
44842;SDS011;31884;52.538;13.820;2023-05-07T13:42:03;3.95;;;1.80;;
44842;SDS011;31884;52.538;13.820;2023-05-07T13:44:28;3.15;;;1.30;;
44842;SDS011;31884;52.538;13.820;2023-05-07T13:46:54;3.38;;;1.90;;
44842;SDS011;31884;52.538;13.820;2023-05-07T13:49:19;3.08;;;1.65;;
44842;SDS011;31884;52.538;13.820;2023-05-07T13:51:45;2.42;;;1.65;;
44842;SDS011;31884;52.538;13.820;2023-05-07T13:54:10;2.38;;;1.33;;
44842;SDS011;31884;52.538;13.820;2023-05-07T13:56:36;1.70;;;1.40;;
44842;SDS011;31884;52.538;13.820;2023-05-07T13:59:02;1.60;;;1.30;;
44842;SDS011;31884;52.538;13.820;2023-05-07T14:01:27;2.22;;;1.50;;
44842;SDS011;31884;52.538;13.820;2023-05-07T14:03:53;1.65;;;1.38;;
44842;SDS011;31884;52.538;13.820;2023-05-07T14:06:19;1.90;;;1.27;;
44842;SDS011;31884;52.538;13.820;2023-05-07T14:08:44;1.42;;;1.23;;
44842;SDS011;31884;52.538;13.820;2023-05-07T14:11:10;1.73;;;1.10;;
44842;SDS011;31884;52.538;13.820;2023-05-07T14:13:35;2.70;;;1.27;;
44842;SDS011;31884;52.538;13.820;2023-05-07T14:16:01;1.75;;;1.17;;
44842;SDS011;31884;52.538;13.820;2023-05-07T14:18:27;1.00;;;0.90;;
44842;SDS011;31884;52.538;13.820;2023-05-07T14:20:54;3.70;;;1.55;;
44842;SDS011;31884;52.538;13.820;2023-05-07T14:23:19;1.77;;;1.20;;
44842;SDS011;31884;52.538;13.820;2023-05-07T14:25:47;2.03;;;1.40;;
44842;SDS011;31884;52.538;13.820;2023-05-07T14:28:12;1.08;;;0.98;;